createdAt,value
2019-02-17T00:00:21.131Z,75.80
2019-02-17T00:02:54.666Z,76.00
2019-02-17T00:05:51.623Z,76.10
2019-02-17T00:08:28.775Z,76.10
2019-02-17T00:11:06.972Z,76.10
2019-02-17T00:13:41.905Z,76.00
2019-02-17T00:16:27.838Z,76.20
2019-02-17T00:18:55.720Z,76.30
2019-02-17T00:24:46.314Z,76.30
2019-02-17T00:27:22.245Z,76.10
2019-02-17T00:29:56.541Z,76.20
2019-02-17T00:32:35.508Z,76.20
2019-02-17T00:35:07.726Z,76.40
2019-02-17T00:37:41.305Z,76.50
2019-02-17T00:40:17.236Z,76.70
2019-02-17T00:43:22.478Z,76.50
2019-02-17T01:10:48.275Z,77.20
2019-02-17T01:13:19.666Z,77.30
2019-02-17T01:15:53.148Z,77.20
2019-02-17T01:18:26.524Z,77.50
2019-02-17T01:21:02.350Z,77.70
2019-02-17T01:23:36.555Z,77.60
2019-02-17T01:26:06.260Z,77.70
2019-02-17T01:28:39.134Z,77.80
2019-02-17T01:31:14.232Z,77.90
2019-02-17T01:33:44.954Z,78.00
2019-02-17T01:49:05.974Z,78.20
2019-02-17T02:51:50.204Z,80.20
2019-02-17T02:54:20.777Z,80.30
2019-02-17T02:57:14.201Z,80.00
2019-02-17T02:59:54.453Z,79.80
2019-02-17T03:02:25.191Z,80.00
2019-02-17T03:05:04.526Z,80.00
2019-02-17T03:07:36.626Z,80.40
2019-02-17T03:10:11.170Z,80.10
2019-02-17T03:12:59.825Z,80.20
2019-02-17T03:15:53.328Z,80.00
2019-02-17T03:18:31.590Z,80.00
2019-02-17T03:21:06.871Z,79.90
2019-02-17T03:26:38.848Z,79.90
2019-02-17T03:32:03.723Z,79.80
2019-02-17T03:34:41.233Z,79.90
2019-02-17T03:37:33.403Z,80.00
2019-02-17T03:40:08.659Z,80.20
2019-02-17T03:42:47.878Z,79.80
2019-02-17T03:45:38.255Z,80.00
2019-02-17T03:48:35.642Z,79.80
2019-02-17T03:51:16.212Z,80.00
2019-02-17T03:53:54.926Z,79.70
2019-02-17T03:56:26.274Z,79.80
2019-02-17T03:59:02.579Z,79.80
2019-02-17T04:01:49.872Z,80.00
2019-02-17T04:04:24.288Z,80.00
2019-02-17T04:07:18.414Z,80.20
2019-02-17T04:13:05.854Z,80.10
2019-02-17T04:15:46.567Z,80.30
2019-02-17T04:18:26.422Z,80.90
2019-02-17T04:21:03.838Z,80.50
2019-02-17T04:23:38.978Z,80.20
2019-02-17T04:26:16.064Z,80.30
2019-02-17T04:28:57.093Z,80.10
2019-02-17T04:31:34.998Z,80.30
2019-02-17T04:37:13.217Z,80.10
2019-02-17T04:39:46.395Z,80.00
2019-02-17T04:42:29.339Z,80.00
2019-02-17T04:45:01.122Z,80.00
2019-02-17T04:47:45.405Z,79.90
2019-02-17T04:50:23.044Z,80.10
2019-02-17T04:53:02.867Z,79.90
2019-02-17T04:55:41.307Z,79.90
2019-02-17T05:01:21.622Z,79.90
2019-02-17T05:03:52.736Z,80.00
2019-02-17T05:39:54.211Z,80.50
2019-02-17T07:19:31.456Z,82.00
2019-02-17T08:03:09.087Z,80.70
2019-02-17T08:06:27.984Z,80.50
2019-02-17T08:09:16.626Z,79.80
2019-02-17T08:11:37.175Z,79.10
2019-02-17T08:14:08.328Z,78.70
2019-02-17T08:16:53.442Z,77.80
2019-02-17T08:19:21.064Z,77.50
2019-02-17T08:22:06.458Z,76.40
2019-02-17T08:24:42.438Z,76.10
2019-02-17T08:30:52.091Z,75.20
2019-02-17T08:36:44.225Z,73.30
2019-02-17T08:39:16.007Z,72.60
2019-02-17T08:41:58.884Z,71.90
2019-02-17T08:44:36.048Z,71.80
2019-02-17T08:47:08.474Z,70.70
2019-02-17T08:49:38.194Z,71.20
2019-02-17T08:52:16.137Z,69.70
2019-02-17T08:54:53.154Z,69.50
2019-02-17T08:57:29.424Z,68.20
2019-02-17T09:00:22.546Z,66.70
2019-02-17T09:05:26.146Z,67.20
2019-02-17T09:07:55.469Z,66.20
2019-02-17T09:10:24.802Z,66.70
2019-02-17T10:13:18.392Z,50.50
2019-02-17T10:41:11.345Z,47.40
2019-02-17T11:08:03.153Z,42.90
2019-02-17T11:10:53.361Z,44.00
2019-02-17T11:13:25.685Z,43.60
2019-02-17T11:15:55.929Z,43.40
2019-02-17T11:18:25.618Z,42.00
2019-02-17T11:20:55.016Z,42.60
2019-02-17T11:23:24.610Z,42.60
2019-02-17T11:25:54.902Z,42.80
2019-02-17T11:28:24.292Z,43.40
2019-02-17T11:30:53.792Z,42.50
2019-02-17T11:33:23.244Z,42.10
2019-02-17T11:38:43.670Z,42.70
2019-02-17T11:41:45.164Z,42.30
2019-02-17T12:56:55.241Z,35.50
2019-02-17T13:05:23.174Z,35.80
2019-02-17T13:07:52.842Z,36.40
2019-02-17T13:10:23.445Z,36.20
2019-02-17T13:12:54.350Z,35.20
2019-02-17T13:15:25.320Z,34.80
2019-02-17T13:17:55.672Z,34.70
2019-02-17T13:20:26.139Z,34.10
2019-02-17T13:22:56.931Z,35.10
2019-02-17T13:25:28.093Z,36.50
2019-02-17T15:21:18.127Z,40.70
2019-02-17T15:24:44.653Z,41.00
2019-02-17T15:26:42.063Z,41.20
2019-02-17T15:38:41.711Z,41.60
2019-02-17T15:41:21.666Z,41.20
2019-02-17T16:50:26.894Z,43.70
2019-02-17T19:02:25.521Z,45.30
2019-02-17T19:04:57.662Z,45.50
2019-02-17T19:07:27.141Z,45.90
2019-02-17T19:09:56.606Z,45.90
2019-02-17T19:12:26.014Z,46.00
2019-02-17T19:14:58.409Z,46.40
2019-02-17T19:17:33.527Z,46.40
2019-02-17T19:20:06.841Z,46.30
2019-02-17T19:22:50.698Z,46.70
2019-02-17T19:25:30.534Z,46.30
2019-02-17T19:28:03.674Z,46.60
2019-02-17T19:30:33.459Z,46.30
2019-02-17T19:33:03.151Z,46.50
2019-02-17T19:35:41.436Z,46.70
2019-02-17T19:38:04.779Z,46.60
2019-02-17T19:40:34.235Z,46.60
2019-02-17T19:43:03.688Z,46.60
2019-02-17T19:45:33.278Z,46.80
2019-02-17T19:48:02.779Z,46.90
2019-02-17T19:50:32.365Z,46.90
2019-02-17T19:53:01.875Z,46.80
2019-02-17T19:55:32.167Z,47.70
2019-02-17T19:58:01.656Z,46.90
2019-02-17T20:00:33.888Z,46.90
2019-02-17T20:03:21.232Z,47.00
2019-02-17T20:06:01.437Z,47.10
2019-02-17T20:08:30.842Z,47.20
2019-02-17T20:11:00.582Z,47.30
2019-02-17T20:13:32.458Z,47.30
2019-02-17T20:16:01.992Z,47.20
2019-02-17T20:18:44.066Z,47.30
2019-02-17T20:21:15.910Z,47.40
2019-02-17T20:23:47.491Z,47.50
2019-02-17T20:26:22.233Z,47.50
2019-02-17T20:28:57.084Z,47.70
2019-02-17T20:31:23.850Z,47.80
2019-02-17T20:33:53.371Z,48.10
2019-02-17T20:36:23.031Z,48.00
2019-02-17T20:38:52.723Z,48.00
2019-02-17T20:41:22.535Z,48.10
2019-02-17T20:43:51.989Z,48.30
2019-02-17T20:46:21.347Z,48.40
2019-02-17T20:48:52.511Z,48.50
2019-02-17T23:05:10.253Z,51.80
